Current Weather

Doha Intl Airport

Doha Intl Airport, Qatar (OTBD)

Report from: Thursday, April 25, 2024 8:00 AM +03
Current time: Thursday, April 25, 2024 8:36 AM +03

Nearby weather – Weather history – Daily summaries
Weather forecast

Temperature29.0°C (84.2°F)
Heat index28.6°C (83.5°F)
Dew point13.0°C (55.4°F)
Winds 10 kts (5.1 m/s, 11.5 mph) North (350°)
Clouds Sky clear
Altimeter29.71 in.Hg (1006 mB)
Relative humidity37 %
Density altitude2,061 ft. (628 m)
Remarks Fully automated report
Ceiling and visibility OK
No significant changes expected in the next two hours
Flight conditions Visual Meteorological Conditions
Raw dataOTBD 250500Z AUTO 35010KT CAVOK 29/13 Q1006 NOSIG
An error has occurred. This application may no longer respond until reloaded. Reload 🗙